sensor_id;sensor_type;location;lat;lon;timestamp;P1;P2;P0
56360;PMS7003;42611;51.132;13.588;2023-05-07T00:01:01;33.2;29.4;
56360;PMS7003;42611;51.132;13.588;2023-05-07T00:06:01;32.7;29.1;
56360;PMS7003;42611;51.132;13.588;2023-05-07T00:11:01;33.4;29.6;
56360;PMS7003;42611;51.132;13.588;2023-05-07T00:16:02;33.0;29.5;
56360;PMS7003;42611;51.132;13.588;2023-05-07T00:21:01;32.0;28.8;
56360;PMS7003;42611;51.132;13.588;2023-05-07T00:26:01;32.2;29.4;
56360;PMS7003;42611;51.132;13.588;2023-05-07T00:31:01;31.0;28.9;
56360;PMS7003;42611;51.132;13.588;2023-05-07T00:36:01;30.8;29.1;
56360;PMS7003;42611;51.132;13.588;2023-05-07T00:46:01;28.4;27.1;
56360;PMS7003;42611;51.132;13.588;2023-05-07T00:51:01;29.6;27.6;
56360;PMS7003;42611;51.132;13.588;2023-05-07T00:56:01;29.8;27.7;
56360;PMS7003;42611;51.132;13.588;2023-05-07T01:01:01;30.2;27.4;
56360;PMS7003;42611;51.132;13.588;2023-05-07T01:06:03;31.2;28.1;
56360;PMS7003;42611;51.132;13.588;2023-05-07T01:11:01;33.5;29.8;
56360;PMS7003;42611;51.132;13.588;2023-05-07T01:16:02;32.6;29.3;
56360;PMS7003;42611;51.132;13.588;2023-05-07T01:21:01;30.8;27.3;
56360;PMS7003;42611;51.132;13.588;2023-05-07T01:26:06;30.4;27.1;
56360;PMS7003;42611;51.132;13.588;2023-05-07T01:31:02;29.2;26.6;
56360;PMS7003;42611;51.132;13.588;2023-05-07T01:36:03;28.9;26.3;
56360;PMS7003;42611;51.132;13.588;2023-05-07T01:41:01;28.7;26.2;
56360;PMS7003;42611;51.132;13.588;2023-05-07T01:46:01;28.9;26.5;
56360;PMS7003;42611;51.132;13.588;2023-05-07T01:51:01;27.8;25.9;
56360;PMS7003;42611;51.132;13.588;2023-05-07T02:01:01;26.5;24.8;
56360;PMS7003;42611;51.132;13.588;2023-05-07T02:06:01;26.4;24.1;
56360;PMS7003;42611;51.132;13.588;2023-05-07T02:11:01;26.2;24.4;
56360;PMS7003;42611;51.132;13.588;2023-05-07T02:17:02;26.7;24.4;
56360;PMS7003;42611;51.132;13.588;2023-05-07T02:22:01;26.5;24.9;
56360;PMS7003;42611;51.132;13.588;2023-05-07T02:27:01;28.1;26.0;
56360;PMS7003;42611;51.132;13.588;2023-05-07T02:32:01;27.2;25.9;
56360;PMS7003;42611;51.132;13.588;2023-05-07T02:37:02;28.2;27.0;
56360;PMS7003;42611;51.132;13.588;2023-05-07T02:42:01;29.3;27.9;
56360;PMS7003;42611;51.132;13.588;2023-05-07T02:47:01;29.2;27.5;
56360;PMS7003;42611;51.132;13.588;2023-05-07T02:52:02;28.3;26.6;
56360;PMS7003;42611;51.132;13.588;2023-05-07T02:57:01;29.1;27.3;
56360;PMS7003;42611;51.132;13.588;2023-05-07T03:02:01;28.4;26.6;
56360;PMS7003;42611;51.132;13.588;2023-05-07T03:07:01;27.8;26.4;
56360;PMS7003;42611;51.132;13.588;2023-05-07T03:12:01;29.0;27.2;
56360;PMS7003;42611;51.132;13.588;2023-05-07T03:17:02;29.2;27.2;
56360;PMS7003;42611;51.132;13.588;2023-05-07T03:22:01;29.5;27.5;
56360;PMS7003;42611;51.132;13.588;2023-05-07T03:28:01;32.9;29.7;
56360;PMS7003;42611;51.132;13.588;2023-05-07T03:33:01;36.0;31.7;
56360;PMS7003;42611;51.132;13.588;2023-05-07T03:38:01;35.9;31.6;
56360;PMS7003;42611;51.132;13.588;2023-05-07T03:43:02;36.5;32.7;
56360;PMS7003;42611;51.132;13.588;2023-05-07T03:48:02;37.1;32.8;
56360;PMS7003;42611;51.132;13.588;2023-05-07T03:53:01;34.6;31.2;
56360;PMS7003;42611;51.132;13.588;2023-05-07T03:58:01;33.1;29.8;
56360;PMS7003;42611;51.132;13.588;2023-05-07T04:03:01;31.0;28.5;
56360;PMS7003;42611;51.132;13.588;2023-05-07T04:13:01;31.3;28.4;
56360;PMS7003;42611;51.132;13.588;2023-05-07T04:18:02;32.3;29.2;
56360;PMS7003;42611;51.132;13.588;2023-05-07T04:23:01;32.0;29.4;
56360;PMS7003;42611;51.132;13.588;2023-05-07T04:28:01;35.6;31.4;
56360;PMS7003;42611;51.132;13.588;2023-05-07T04:33:01;36.5;32.0;
56360;PMS7003;42611;51.132;13.588;2023-05-07T04:38:01;36.4;31.9;
56360;PMS7003;42611;51.132;13.588;2023-05-07T04:43:01;35.4;31.5;
56360;PMS7003;42611;51.132;13.588;2023-05-07T04:48:01;35.6;31.6;
56360;PMS7003;42611;51.132;13.588;2023-05-07T04:53:01;34.5;30.9;
56360;PMS7003;42611;51.132;13.588;2023-05-07T04:58:01;33.9;30.6;
56360;PMS7003;42611;51.132;13.588;2023-05-07T05:03:01;33.3;30.5;
56360;PMS7003;42611;51.132;13.588;2023-05-07T05:08:01;32.5;29.8;
56360;PMS7003;42611;51.132;13.588;2023-05-07T05:13:02;31.1;28.7;
56360;PMS7003;42611;51.132;13.588;2023-05-07T05:18:01;29.3;28.1;
56360;PMS7003;42611;51.132;13.588;2023-05-07T05:23:01;28.2;26.9;
56360;PMS7003;42611;51.132;13.588;2023-05-07T05:28:01;27.8;26.5;
56360;PMS7003;42611;51.132;13.588;2023-05-07T05:33:02;28.0;26.3;
56360;PMS7003;42611;51.132;13.588;2023-05-07T05:43:01;27.7;26.1;
56360;PMS7003;42611;51.132;13.588;2023-05-07T05:48:01;27.2;25.6;
56360;PMS7003;42611;51.132;13.588;2023-05-07T05:53:01;26.6;25.1;
56360;PMS7003;42611;51.132;13.588;2023-05-07T05:58:01;27.0;25.1;
56360;PMS7003;42611;51.132;13.588;2023-05-07T06:03:01;26.7;24.5;
56360;PMS7003;42611;51.132;13.588;2023-05-07T06:08:01;27.6;25.0;
56360;PMS7003;42611;51.132;13.588;2023-05-07T06:13:02;28.1;25.5;
56360;PMS7003;42611;51.132;13.588;2023-05-07T06:18:01;27.3;24.8;
56360;PMS7003;42611;51.132;13.588;2023-05-07T06:23:01;26.4;24.4;
56360;PMS7003;42611;51.132;13.588;2023-05-07T06:28:02;25.2;23.1;
56360;PMS7003;42611;51.132;13.588;2023-05-07T06:33:01;22.5;20.7;
56360;PMS7003;42611;51.132;13.588;2023-05-07T06:38:01;21.0;19.4;
56360;PMS7003;42611;51.132;13.588;2023-05-07T06:43:01;19.9;18.4;
56360;PMS7003;42611;51.132;13.588;2023-05-07T06:48:01;18.5;16.6;
56360;PMS7003;42611;51.132;13.588;2023-05-07T06:53:01;18.3;17.1;
56360;PMS7003;42611;51.132;13.588;2023-05-07T06:58:01;18.0;16.8;
56360;PMS7003;42611;51.132;13.588;2023-05-07T07:03:01;18.1;16.6;
56360;PMS7003;42611;51.132;13.588;2023-05-07T07:13:02;18.3;17.2;
56360;PMS7003;42611;51.132;13.588;2023-05-07T07:18:01;17.8;16.3;
56360;PMS7003;42611;51.132;13.588;2023-05-07T07:23:01;18.1;16.8;
56360;PMS7003;42611;51.132;13.588;2023-05-07T07:28:01;17.6;16.6;
56360;PMS7003;42611;51.132;13.588;2023-05-07T07:33:01;18.5;17.2;
56360;PMS7003;42611;51.132;13.588;2023-05-07T07:38:01;17.7;16.3;
56360;PMS7003;42611;51.132;13.588;2023-05-07T07:43:01;16.8;15.7;
56360;PMS7003;42611;51.132;13.588;2023-05-07T07:48:01;16.2;15.1;
56360;PMS7003;42611;51.132;13.588;2023-05-07T07:53:01;14.8;13.9;
56360;PMS7003;42611;51.132;13.588;2023-05-07T07:58:01;12.6;12.3;
56360;PMS7003;42611;51.132;13.588;2023-05-07T08:03:02;11.9;11.7;
56360;PMS7003;42611;51.132;13.588;2023-05-07T08:18:02;12.2;11.4;
56360;PMS7003;42611;51.132;13.588;2023-05-07T08:23:01;12.0;11.3;
56360;PMS7003;42611;51.132;13.588;2023-05-07T08:28:01;11.7;10.9;
56360;PMS7003;42611;51.132;13.588;2023-05-07T08:33:08;11.4;10.4;
56360;PMS7003;42611;51.132;13.588;2023-05-07T08:38:01;11.7;10.8;
56360;PMS7003;42611;51.132;13.588;2023-05-07T08:43:01;12.6;12.0;
56360;PMS7003;42611;51.132;13.588;2023-05-07T08:48:02;13.6;12.7;
56360;PMS7003;42611;51.132;13.588;2023-05-07T08:53:06;14.2;13.4;
56360;PMS7003;42611;51.132;13.588;2023-05-07T08:58:01;14.3;13.2;
56360;PMS7003;42611;51.132;13.588;2023-05-07T09:03:06;13.6;12.6;
56360;PMS7003;42611;51.132;13.588;2023-05-07T09:08:07;13.5;12.6;
56360;PMS7003;42611;51.132;13.588;2023-05-07T09:13:06;14.7;14.0;
56360;PMS7003;42611;51.132;13.588;2023-05-07T09:18:07;15.2;14.4;
56360;PMS7003;42611;51.132;13.588;2023-05-07T09:23:01;15.8;15.5;
56360;PMS7003;42611;51.132;13.588;2023-05-07T09:28:03;16.1;15.7;
56360;PMS7003;42611;51.132;13.588;2023-05-07T09:33:02;17.3;16.6;
56360;PMS7003;42611;51.132;13.588;2023-05-07T09:38:07;17.5;16.6;
56360;PMS7003;42611;51.132;13.588;2023-05-07T09:43:12;18.7;17.6;
56360;PMS7003;42611;51.132;13.588;2023-05-07T09:48:02;19.5;18.0;
56360;PMS7003;42611;51.132;13.588;2023-05-07T09:53:01;21.1;19.6;
56360;PMS7003;42611;51.132;13.588;2023-05-07T09:58:01;20.4;19.2;
56360;PMS7003;42611;51.132;13.588;2023-05-07T10:03:02;19.3;18.5;
56360;PMS7003;42611;51.132;13.588;2023-05-07T10:08:05;18.0;17.2;
56360;PMS7003;42611;51.132;13.588;2023-05-07T10:20:09;24.0;20.6;
56360;PMS7003;42611;51.132;13.588;2023-05-07T10:25:02;21.8;20.0;
56360;PMS7003;42611;51.132;13.588;2023-05-07T10:30:54;21.3;20.0;
56360;PMS7003;42611;51.132;13.588;2023-05-07T10:35:02;21.6;20.0;
56360;PMS7003;42611;51.132;13.588;2023-05-07T10:40:01;21.7;20.1;
56360;PMS7003;42611;51.132;13.588;2023-05-07T10:45:16;20.1;19.2;
56360;PMS7003;42611;51.132;13.588;2023-05-07T10:50:21;20.2;18.7;
56360;PMS7003;42611;51.132;13.588;2023-05-07T10:55:19;20.1;18.4;
56360;PMS7003;42611;51.132;13.588;2023-05-07T11:00:02;19.4;18.2;
56360;PMS7003;42611;51.132;13.588;2023-05-07T11:05:34;17.9;17.0;
56360;PMS7003;42611;51.132;13.588;2023-05-07T11:10:03;19.1;17.8;
56360;PMS7003;42611;51.132;13.588;2023-05-07T11:15:05;19.0;18.4;
56360;PMS7003;42611;51.132;13.588;2023-05-07T11:20:01;18.5;18.0;
56360;PMS7003;42611;51.132;13.588;2023-05-07T11:25:02;18.2;17.8;
56360;PMS7003;42611;51.132;13.588;2023-05-07T11:30:01;18.6;18.1;
56360;PMS7003;42611;51.132;13.588;2023-05-07T11:35:01;17.7;17.4;
56360;PMS7003;42611;51.132;13.588;2023-05-07T11:40:03;17.2;16.4;
56360;PMS7003;42611;51.132;13.588;2023-05-07T11:45:02;16.4;15.6;
56360;PMS7003;42611;51.132;13.588;2023-05-07T11:50:03;15.6;15.0;
56360;PMS7003;42611;51.132;13.588;2023-05-07T11:55:01;15.1;14.2;
56360;PMS7003;42611;51.132;13.588;2023-05-07T12:00:02;14.7;13.8;
56360;PMS7003;42611;51.132;13.588;2023-05-07T12:05:01;14.1;13.6;
56360;PMS7003;42611;51.132;13.588;2023-05-07T12:10:06;14.8;14.2;
56360;PMS7003;42611;51.132;13.588;2023-05-07T12:15:01;15.4;14.4;
56360;PMS7003;42611;51.132;13.588;2023-05-07T12:25:01;15.3;14.7;
56360;PMS7003;42611;51.132;13.588;2023-05-07T12:30:02;15.1;14.5;
56360;PMS7003;42611;51.132;13.588;2023-05-07T12:40:10;14.5;14.4;
56360;PMS7003;42611;51.132;13.588;2023-05-07T12:45:10;14.7;14.6;
56360;PMS7003;42611;51.132;13.588;2023-05-07T12:50:01;14.3;14.2;
56360;PMS7003;42611;51.132;13.588;2023-05-07T12:55:04;15.2;15.1;
56360;PMS7003;42611;51.132;13.588;2023-05-07T13:00:01;14.3;14.2;
56360;PMS7003;42611;51.132;13.588;2023-05-07T13:05:01;15.0;14.7;
56360;PMS7003;42611;51.132;13.588;2023-05-07T13:10:01;14.8;14.2;
56360;PMS7003;42611;51.132;13.588;2023-05-07T13:15:01;15.2;14.6;
56360;PMS7003;42611;51.132;13.588;2023-05-07T13:20:01;14.8;14.2;
56360;PMS7003;42611;51.132;13.588;2023-05-07T13:25:01;15.2;14.8;
56360;PMS7003;42611;51.132;13.588;2023-05-07T13:30:02;14.5;14.1;
56360;PMS7003;42611;51.132;13.588;2023-05-07T13:35:01;13.8;13.6;
56360;PMS7003;42611;51.132;13.588;2023-05-07T13:40:01;13.4;13.0;
56360;PMS7003;42611;51.132;13.588;2023-05-07T13:45:02;13.0;12.5;
56360;PMS7003;42611;51.132;13.588;2023-05-07T13:50:01;12.5;12.0;
56360;PMS7003;42611;51.132;13.588;2023-05-07T13:55:01;12.2;11.8;
56360;PMS7003;42611;51.132;13.588;2023-05-07T14:00:03;12.5;12.1;
56360;PMS7003;42611;51.132;13.588;2023-05-07T14:05:01;12.0;11.4;
56360;PMS7003;42611;51.132;13.588;2023-05-07T14:15:01;12.2;11.5;
56360;PMS7003;42611;51.132;13.588;2023-05-07T14:20:01;12.6;11.9;
56360;PMS7003;42611;51.132;13.588;2023-05-07T14:25:08;11.6;11.1;
56360;PMS7003;42611;51.132;13.588;2023-05-07T14:30:01;13.0;12.3;
56360;PMS7003;42611;51.132;13.588;2023-05-07T14:35:01;13.2;12.5;
56360;PMS7003;42611;51.132;13.588;2023-05-07T14:40:01;13.1;12.4;
56360;PMS7003;42611;51.132;13.588;2023-05-07T14:45:02;13.0;12.3;
56360;PMS7003;42611;51.132;13.588;2023-05-07T14:50:01;14.0;13.3;
56360;PMS7003;42611;51.132;13.588;2023-05-07T14:55:01;13.6;13.4;
56360;PMS7003;42611;51.132;13.588;2023-05-07T15:00:05;13.3;12.9;
56360;PMS7003;42611;51.132;13.588;2023-05-07T15:05:01;13.4;13.0;
56360;PMS7003;42611;51.132;13.588;2023-05-07T15:10:01;13.6;13.1;
56360;PMS7003;42611;51.132;13.588;2023-05-07T15:15:01;13.8;13.2;
56360;PMS7003;42611;51.132;13.588;2023-05-07T15:20:01;13.6;13.3;
56360;PMS7003;42611;51.132;13.588;2023-05-07T15:25:01;14.3;14.1;
56360;PMS7003;42611;51.132;13.588;2023-05-07T15:30:01;14.5;14.1;
56360;PMS7003;42611;51.132;13.588;2023-05-07T15:35:02;15.2;14.9;
56360;PMS7003;42611;51.132;13.588;2023-05-07T15:45:01;15.8;15.2;
56360;PMS7003;42611;51.132;13.588;2023-05-07T15:50:01;15.9;15.2;
56360;PMS7003;42611;51.132;13.588;2023-05-07T15:55:01;17.0;16.4;
56360;PMS7003;42611;51.132;13.588;2023-05-07T16:00:02;17.7;16.8;
56360;PMS7003;42611;51.132;13.588;2023-05-07T16:05:01;18.9;17.8;
56360;PMS7003;42611;51.132;13.588;2023-05-07T16:10:01;19.0;18.1;
56360;PMS7003;42611;51.132;13.588;2023-05-07T16:15:02;19.3;18.6;
56360;PMS7003;42611;51.132;13.588;2023-05-07T16:20:01;18.9;18.2;
56360;PMS7003;42611;51.132;13.588;2023-05-07T16:25:02;17.8;17.3;
56360;PMS7003;42611;51.132;13.588;2023-05-07T16:30:01;17.4;16.9;
56360;PMS7003;42611;51.132;13.588;2023-05-07T16:35:01;16.1;15.4;
56360;PMS7003;42611;51.132;13.588;2023-05-07T16:40:01;16.0;15.4;
56360;PMS7003;42611;51.132;13.588;2023-05-07T16:45:02;16.2;15.6;
56360;PMS7003;42611;51.132;13.588;2023-05-07T16:50:01;15.3;14.9;
56360;PMS7003;42611;51.132;13.588;2023-05-07T17:00:02;16.5;15.8;
56360;PMS7003;42611;51.132;13.588;2023-05-07T17:05:02;16.4;15.4;
56360;PMS7003;42611;51.132;13.588;2023-05-07T17:10:01;15.8;14.8;
56360;PMS7003;42611;51.132;13.588;2023-05-07T17:15:02;17.0;15.8;
56360;PMS7003;42611;51.132;13.588;2023-05-07T17:20:01;17.8;16.4;
56360;PMS7003;42611;51.132;13.588;2023-05-07T17:30:01;17.4;16.3;
56360;PMS7003;42611;51.132;13.588;2023-05-07T17:40:01;17.2;15.7;
56360;PMS7003;42611;51.132;13.588;2023-05-07T17:45:01;15.9;15.2;
56360;PMS7003;42611;51.132;13.588;2023-05-07T17:50:12;17.3;16.2;
56360;PMS7003;42611;51.132;13.588;2023-05-07T17:55:01;17.5;16.1;
56360;PMS7003;42611;51.132;13.588;2023-05-07T18:00:03;17.4;16.0;
56360;PMS7003;42611;51.132;13.588;2023-05-07T18:05:01;17.3;16.2;
56360;PMS7003;42611;51.132;13.588;2023-05-07T18:10:01;17.7;16.2;
56360;PMS7003;42611;51.132;13.588;2023-05-07T18:15:02;15.4;14.4;
56360;PMS7003;42611;51.132;13.588;2023-05-07T18:20:01;16.0;15.3;
56360;PMS7003;42611;51.132;13.588;2023-05-07T18:25:01;17.0;15.8;
56360;PMS7003;42611;51.132;13.588;2023-05-07T18:30:02;16.8;15.8;
56360;PMS7003;42611;51.132;13.588;2023-05-07T18:35:02;17.3;16.4;
56360;PMS7003;42611;51.132;13.588;2023-05-07T18:40:01;18.1;16.4;
56360;PMS7003;42611;51.132;13.588;2023-05-07T18:45:01;17.8;16.0;
56360;PMS7003;42611;51.132;13.588;2023-05-07T18:50:01;17.6;16.0;
56360;PMS7003;42611;51.132;13.588;2023-05-07T18:55:01;18.2;16.6;
56360;PMS7003;42611;51.132;13.588;2023-05-07T19:00:01;18.6;17.0;
56360;PMS7003;42611;51.132;13.588;2023-05-07T19:05:01;18.8;17.9;
56360;PMS7003;42611;51.132;13.588;2023-05-07T19:15:02;18.9;18.4;
56360;PMS7003;42611;51.132;13.588;2023-05-07T19:20:01;19.0;18.6;
56360;PMS7003;42611;51.132;13.588;2023-05-07T19:25:01;18.0;17.7;
56360;PMS7003;42611;51.132;13.588;2023-05-07T19:30:02;17.9;17.6;
56360;PMS7003;42611;51.132;13.588;2023-05-07T19:35:01;18.1;17.4;
56360;PMS7003;42611;51.132;13.588;2023-05-07T19:40:01;18.4;17.7;
56360;PMS7003;42611;51.132;13.588;2023-05-07T19:45:02;18.6;17.8;
56360;PMS7003;42611;51.132;13.588;2023-05-07T19:50:01;19.3;18.5;
56360;PMS7003;42611;51.132;13.588;2023-05-07T19:55:01;19.7;18.7;
56360;PMS7003;42611;51.132;13.588;2023-05-07T20:00:02;20.0;19.2;
56360;PMS7003;42611;51.132;13.588;2023-05-07T20:05:01;20.2;19.6;
56360;PMS7003;42611;51.132;13.588;2023-05-07T20:10:01;19.9;19.4;
56360;PMS7003;42611;51.132;13.588;2023-05-07T20:15:02;19.8;19.2;
56360;PMS7003;42611;51.132;13.588;2023-05-07T20:25:02;19.2;18.7;
56360;PMS7003;42611;51.132;13.588;2023-05-07T20:30:01;19.3;18.9;
56360;PMS7003;42611;51.132;13.588;2023-05-07T20:35:02;19.9;19.3;
56360;PMS7003;42611;51.132;13.588;2023-05-07T20:40:01;19.8;19.3;
56360;PMS7003;42611;51.132;13.588;2023-05-07T20:45:05;20.1;19.7;
56360;PMS7003;42611;51.132;13.588;2023-05-07T20:50:01;20.8;20.3;
56360;PMS7003;42611;51.132;13.588;2023-05-07T20:55:01;20.0;19.5;
56360;PMS7003;42611;51.132;13.588;2023-05-07T21:00:02;19.9;19.3;
56360;PMS7003;42611;51.132;13.588;2023-05-07T21:05:02;20.0;19.4;
56360;PMS7003;42611;51.132;13.588;2023-05-07T21:15:01;19.8;18.6;
56360;PMS7003;42611;51.132;13.588;2023-05-07T21:25:01;20.1;18.7;
56360;PMS7003;42611;51.132;13.588;2023-05-07T21:30:01;19.5;18.0;
56360;PMS7003;42611;51.132;13.588;2023-05-07T21:35:01;18.6;17.2;
56360;PMS7003;42611;51.132;13.588;2023-05-07T21:40:01;18.2;17.2;
56360;PMS7003;42611;51.132;13.588;2023-05-07T21:45:04;18.2;16.9;
56360;PMS7003;42611;51.132;13.588;2023-05-07T21:50:01;17.2;16.4;
56360;PMS7003;42611;51.132;13.588;2023-05-07T21:55:01;17.6;16.8;
56360;PMS7003;42611;51.132;13.588;2023-05-07T22:00:02;16.6;16.0;
56360;PMS7003;42611;51.132;13.588;2023-05-07T22:05:01;16.5;15.8;
56360;PMS7003;42611;51.132;13.588;2023-05-07T22:10:01;16.2;15.6;
56360;PMS7003;42611;51.132;13.588;2023-05-07T22:15:02;15.8;15.4;
56360;PMS7003;42611;51.132;13.588;2023-05-07T22:20:01;15.1;14.9;
56360;PMS7003;42611;51.132;13.588;2023-05-07T22:25:01;15.8;15.5;
56360;PMS7003;42611;51.132;13.588;2023-05-07T22:30:02;15.2;14.9;
56360;PMS7003;42611;51.132;13.588;2023-05-07T22:35:02;14.6;14.4;
56360;PMS7003;42611;51.132;13.588;2023-05-07T22:40:01;15.5;14.8;
56360;PMS7003;42611;51.132;13.588;2023-05-07T22:45:02;15.6;14.9;
56360;PMS7003;42611;51.132;13.588;2023-05-07T22:50:01;15.8;14.9;
56360;PMS7003;42611;51.132;13.588;2023-05-07T22:55:01;16.4;15.4;
56360;PMS7003;42611;51.132;13.588;2023-05-07T23:00:02;16.2;15.2;
56360;PMS7003;42611;51.132;13.588;2023-05-07T23:05:01;15.8;15.0;
56360;PMS7003;42611;51.132;13.588;2023-05-07T23:10:01;16.1;14.8;
56360;PMS7003;42611;51.132;13.588;2023-05-07T23:15:02;16.2;15.2;
56360;PMS7003;42611;51.132;13.588;2023-05-07T23:25:01;16.6;15.5;
56360;PMS7003;42611;51.132;13.588;2023-05-07T23:30:02;16.5;15.3;
56360;PMS7003;42611;51.132;13.588;2023-05-07T23:40:02;16.9;16.2;
56360;PMS7003;42611;51.132;13.588;2023-05-07T23:45:03;17.4;16.8;
56360;PMS7003;42611;51.132;13.588;2023-05-07T23:50:01;17.7;17.0;
56360;PMS7003;42611;51.132;13.588;2023-05-07T23:55:01;18.0;17.4;
